Time;durP1;ratioP1;P1;durP2;ratioP2;P2;SDS_P1;SDS_P2;PMS_P1;PMS_P2;Temp;Humidity;BMP_temperature;BMP_pressure;BME280_temperature;BME280_humidity;BME280_pressure;Samples;Min_cycle;Max_cycle;Signal;HPM_P1;HPM_P2
2023/11/19 00:00:10;;;;;;;;;;;;;;;;;;5070503;28;19942;-64
2023/11/19 00:02:36;;;;;;;;;;;;;;;;;;5071092;28;19915;-64
2023/11/19 00:05:02;;;;;;;;;;;;;;;;;;5069338;28;19920;-64
2023/11/19 00:07:28;;;;;;;;;;;;;;;;;;5056507;28;20399;-64
2023/11/19 00:09:55;;;;;;;;;;;;;;;;;;5072799;28;19952;-64
2023/11/19 00:12:20;;;;;;;;;;;;;;;;;;5075377;28;19913;-64
2023/11/19 00:14:46;;;;;;;;;;;;;;;;;;5075489;28;20007;-63
2023/11/19 00:17:12;;;;;;;;;;;;;;;;;;5075648;28;20281;-63
2023/11/19 00:19:38;;;;;;;;;;;;;;;;;;5075410;28;20372;-63
2023/11/19 00:22:04;;;;;;;;;;;;;;;;;;5075484;28;19948;-63
2023/11/19 00:24:31;;;;;;;;;;;;;;;;;;5072063;28;19912;-63
2023/11/19 00:26:57;;;;;;;;;;;;;;;;;;5066064;28;20413;-63
2023/11/19 00:29:23;;;;;;;;;;;;;;;;;;5071178;28;19956;-63
2023/11/19 00:31:49;;;;;;;;;;;;;;;;;;5063498;28;19909;-63
2023/11/19 00:34:15;;;;;;;;;;;;;;;;;;5067701;28;20011;-63
2023/11/19 00:36:41;;;;;;;;;;;;;;;;;;5075828;28;20404;-63
2023/11/19 00:39:07;;;;;;;;;;;;;;;;;;5068671;28;19912;-63
2023/11/19 00:41:32;;;;;;;;;;;;;;;;;;5073241;28;20300;-63
2023/11/19 00:43:59;;;;;;;;;;;;;;;;;;5075431;28;19916;-63
2023/11/19 00:46:25;;;;;;;;;;;;;;;;;;5070940;28;19924;-63
2023/11/19 00:48:51;;;;;;;;;;;;;;;;;;5074668;28;19960;-63
2023/11/19 00:51:17;;;;;;;;;;;;;;;;;;5073416;28;20364;-63
2023/11/19 00:53:43;;;;;;;;;;;;;;;;;;5069005;28;19916;-63
2023/11/19 00:56:11;;;;;;;;;;;;;;;;;;5058716;28;19995;-63
2023/11/19 00:58:38;;;;;;;;;;;;;;;;;;5065131;28;20360;-63
2023/11/19 01:01:05;;;;;;;;;;;;;;;;;;5074473;28;20352;-63
2023/11/19 01:03:32;;;;;;;;;;;;;;;;;;5074058;28;19912;-63
2023/11/19 01:06:00;;;;;;;;;;;;;;;;;;5076824;28;19924;-63
2023/11/19 01:08:26;;;;;;;;;;;;;;;;;;5067969;28;19974;-65
2023/11/19 01:10:53;;;;;;;;;;;;;;;;;;5068871;28;19924;-63
2023/11/19 01:13:18;;;;;;;;;;;;;;;;;;5057851;28;20353;-63
2023/11/19 01:15:44;;;;;;;;;;;;;;;;;;5065693;28;19908;-63
2023/11/19 01:18:10;;;;;;;;;;;;;;;;;;5074563;28;19912;-63
2023/11/19 01:20:36;;;;;;;;;;;;;;;;;;5075816;28;19916;-63
2023/11/19 01:23:02;;;;;;;;;;;;;;;;;;5094615;28;19952;-63
2023/11/19 01:25:28;;;;;;;;;;;;;;;;;;5076748;28;20011;-64
2023/11/19 01:27:57;;;;;;;;;;;;;;;;;;5074486;28;20261;-64
2023/11/19 01:30:23;;;;;;;;;;;;;;;;;;5056934;28;20002;-64
2023/11/19 01:32:48;;;;;;;;;;;;;;;;;;5063784;28;19960;-64
2023/11/19 01:35:14;;;;;;;;;;;;;;;;;;5078700;28;20433;-64
2023/11/19 01:37:40;;;;;;;;;;;;;;;;;;5061213;28;19916;-64
2023/11/19 01:40:08;;;;;;;;;;;;;;;;;;5073143;28;20295;-65
2023/11/19 01:42:34;;;;;;;;;;;;;;;;;;5072503;28;19959;-64
2023/11/19 01:45:00;;;;;;;;;;;;;;;;;;5068959;28;19913;-65
2023/11/19 01:47:26;;;;;;;;;;;;;;;;;;5057611;28;19913;-64
2023/11/19 01:49:52;;;;;;;;;;;;;;;;;;5069301;28;19974;-64
2023/11/19 01:52:18;;;;;;;;;;;;;;;;;;5069280;28;20359;-64
2023/11/19 01:54:44;;;;;;;;;;;;;;;;;;5053849;28;20598;-64
2023/11/19 01:57:10;;;;;;;;;;;;;;;;;;5068927;28;19909;-64
2023/11/19 01:59:36;;;;;;;;;;;;;;;;;;5068934;28;19917;-64
2023/11/19 02:02:02;;;;;;;;;;;;;;;;;;5073687;28;19920;-64
2023/11/19 02:04:28;;;;;;;;;;;;;;;;;;5064356;28;19913;-64
2023/11/19 02:06:54;;;;;;;;;;;;;;;;;;5069477;28;19946;-64
2023/11/19 02:09:21;;;;;;;;;;;;;;;;;;5074011;28;19944;-64
2023/11/19 02:11:51;;;;;;;;;;;;;;;;;;5073333;28;19908;-64
2023/11/19 02:14:16;;;;;;;;;;;;;;;;;;5073410;28;19917;-64
2023/11/19 02:16:42;;;;;;;;;;;;;;;;;;5073030;28;20289;-64
2023/11/19 02:19:10;;;;;;;;;;;;;;;;;;5070345;28;19959;-64
2023/11/19 02:21:36;;;;;;;;;;;;;;;;;;5071798;28;19920;-64
2023/11/19 02:24:02;;;;;;;;;;;;;;;;;;5065424;28;19995;-64
2023/11/19 02:26:28;;;;;;;;;;;;;;;;;;5073188;28;20372;-64
2023/11/19 02:28:53;;;;;;;;;;;;;;;;;;5072403;28;20007;-64
2023/11/19 02:31:20;;;;;;;;;;;;;;;;;;5072812;28;19931;-64
2023/11/19 02:33:46;;;;;;;;;;;;;;;;;;5072670;28;19912;-63
2023/11/19 02:36:11;;;;;;;;;;;;;;;;;;5073002;28;20431;-64
2023/11/19 02:38:37;;;;;;;;;;;;;;;;;;5071956;28;20007;-63
2023/11/19 02:41:05;;;;;;;;;;;;;;;;;;5073065;28;20287;-64
2023/11/19 02:43:33;;;;;;;;;;;;;;;;;;5071936;28;19912;-64
2023/11/19 02:45:58;;;;;;;;;;;;;;;;;;5056496;28;19913;-64
2023/11/19 02:48:24;;;;;;;;;;;;;;;;;;5072685;28;19917;-63
2023/11/19 02:50:52;;;;;;;;;;;;;;;;;;5069075;28;19913;-63
2023/11/19 02:53:21;;;;;;;;;;;;;;;;;;5066640;28;19930;-63
2023/11/19 02:55:49;;;;;;;;;;;;;;;;;;5066273;28;19920;-64
2023/11/19 02:58:23;;;;;;;;;;;;;;;;;;5064357;28;19921;-63
2023/11/19 03:01:01;;;;;;;;;;;;;;;;;;5069336;28;19912;-64
2023/11/19 03:03:38;;;;;;;;;;;;;;;;;;5072558;28;19908;-63
2023/11/19 03:06:05;;;;;;;;;;;;;;;;;;5081497;28;20029;-64
2023/11/19 03:08:31;;;;;;;;;;;;;;;;;;5072592;28;19916;-64
2023/11/19 03:10:57;;;;;;;;;;;;;;;;;;5070688;28;19919;-64
2023/11/19 03:13:23;;;;;;;;;;;;;;;;;;5072576;28;19980;-64
2023/11/19 03:15:49;;;;;;;;;;;;;;;;;;5071285;28;19991;-64
2023/11/19 03:18:15;;;;;;;;;;;;;;;;;;5072907;28;19912;-64
2023/11/19 03:20:41;;;;;;;;;;;;;;;;;;5071301;28;19909;-64
2023/11/19 03:23:06;;;;;;;;;;;;;;;;;;5071910;28;19947;-64
2023/11/19 03:25:37;;;;;;;;;;;;;;;;;;5072253;28;19952;-64
2023/11/19 03:28:03;;;;;;;;;;;;;;;;;;5071176;28;19920;-64
2023/11/19 03:30:29;;;;;;;;;;;;;;;;;;5072301;28;19959;-64
2023/11/19 03:32:55;;;;;;;;;;;;;;;;;;5071064;28;19954;-64
2023/11/19 03:35:21;;;;;;;;;;;;;;;;;;5080175;28;19912;-64
2023/11/19 03:37:47;;;;;;;;;;;;;;;;;;5072420;28;20003;-64
2023/11/19 03:40:13;;;;;;;;;;;;;;;;;;5072705;28;20046;-64
2023/11/19 03:42:39;;;;;;;;;;;;;;;;;;5076350;28;20372;-64
2023/11/19 03:45:05;;;;;;;;;;;;;;;;;;5076299;28;19943;-64
2023/11/19 03:47:31;;;;;;;;;;;;;;;;;;5059860;28;19917;-64
2023/11/19 03:49:57;;;;;;;;;;;;;;;;;;5062458;28;19968;-64
2023/11/19 03:52:23;;;;;;;;;;;;;;;;;;5075569;28;20360;-64
2023/11/19 03:54:49;;;;;;;;;;;;;;;;;;5066362;28;19917;-64
2023/11/19 03:57:18;;;;;;;;;;;;;;;;;;5069403;28;19919;-64
2023/11/19 03:59:44;;;;;;;;;;;;;;;;;;5061577;28;20315;-63
2023/11/19 04:02:10;;;;;;;;;;;;;;;;;;5065620;28;20359;-63
2023/11/19 04:04:37;;;;;;;;;;;;;;;;;;5075563;28;19947;-63
2023/11/19 04:07:03;;;;;;;;;;;;;;;;;;5072724;28;19947;-63
2023/11/19 04:09:29;;;;;;;;;;;;;;;;;;5070161;28;20642;-63
2023/11/19 04:11:55;;;;;;;;;;;;;;;;;;5063009;28;19916;-65
2023/11/19 04:14:21;;;;;;;;;;;;;;;;;;5071624;28;20011;-64
2023/11/19 04:16:47;;;;;;;;;;;;;;;;;;5068787;28;19916;-63
2023/11/19 04:19:13;;;;;;;;;;;;;;;;;;5067921;28;19916;-64
2023/11/19 04:21:39;;;;;;;;;;;;;;;;;;5072769;28;19909;-63
2023/11/19 04:24:05;;;;;;;;;;;;;;;;;;5079763;28;20456;-61
2023/11/19 04:26:31;;;;;;;;;;;;;;;;;;5072112;28;20000;-59
2023/11/19 04:28:57;;;;;;;;;;;;;;;;;;5075117;28;19916;-59
2023/11/19 04:31:23;;;;;;;;;;;;;;;;;;5075208;28;19971;-60
2023/11/19 04:33:49;;;;;;;;;;;;;;;;;;5074971;28;19996;-59
2023/11/19 04:36:16;;;;;;;;;;;;;;;;;;5085785;28;20664;-59
2023/11/19 04:38:42;;;;;;;;;;;;;;;;;;5074180;28;19919;-59
2023/11/19 04:41:08;;;;;;;;;;;;;;;;;;5069369;28;20439;-59
2023/11/19 04:43:34;;;;;;;;;;;;;;;;;;5075607;28;19978;-60
2023/11/19 04:46:00;;;;;;;;;;;;;;;;;;5072581;28;19952;-59
2023/11/19 04:48:26;;;;;;;;;;;;;;;;;;5074766;28;20021;-59
2023/11/19 04:50:52;;;;;;;;;;;;;;;;;;5074470;28;20329;-59
2023/11/19 04:53:18;;;;;;;;;;;;;;;;;;5070519;28;19945;-59
2023/11/19 04:55:44;;;;;;;;;;;;;;;;;;5073383;28;19948;-60
2023/11/19 04:58:10;;;;;;;;;;;;;;;;;;5058300;28;19921;-59
2023/11/19 05:00:36;;;;;;;;;;;;;;;;;;5072306;28;19931;-59
2023/11/19 05:03:02;;;;;;;;;;;;;;;;;;5066651;28;20015;-58
2023/11/19 05:05:29;;;;;;;;;;;;;;;;;;5091751;28;19912;-59
2023/11/19 05:07:55;;;;;;;;;;;;;;;;;;5065745;28;19956;-58
2023/11/19 05:10:20;;;;;;;;;;;;;;;;;;5089864;28;19916;-60
2023/11/19 05:12:46;;;;;;;;;;;;;;;;;;5081695;28;19928;-59
2023/11/19 05:15:12;;;;;;;;;;;;;;;;;;5088098;28;20010;-58
2023/11/19 05:17:39;;;;;;;;;;;;;;;;;;5080475;28;19919;-59
2023/11/19 05:20:04;;;;;;;;;;;;;;;;;;5071200;28;20357;-58
2023/11/19 05:22:30;;;;;;;;;;;;;;;;;;5083611;28;19930;-58
2023/11/19 05:24:56;;;;;;;;;;;;;;;;;;5076289;28;19943;-60
2023/11/19 05:27:23;;;;;;;;;;;;;;;;;;5086911;28;20417;-59
2023/11/19 05:29:49;;;;;;;;;;;;;;;;;;5094149;28;19919;-58
2023/11/19 05:32:15;;;;;;;;;;;;;;;;;;5074961;28;19912;-58
2023/11/19 05:34:41;;;;;;;;;;;;;;;;;;5082191;28;20345;-60
2023/11/19 05:37:09;;;;;;;;;;;;;;;;;;5088715;28;19917;-58
2023/11/19 05:39:35;;;;;;;;;;;;;;;;;;5090743;28;20311;-58
2023/11/19 05:42:01;;;;;;;;;;;;;;;;;;5068919;28;19991;-59
2023/11/19 05:44:27;;;;;;;;;;;;;;;;;;5081193;28;19956;-58
2023/11/19 05:46:53;;;;;;;;;;;;;;;;;;5075803;28;20339;-59
2023/11/19 05:49:19;;;;;;;;;;;;;;;;;;5071321;28;19942;-58
2023/11/19 05:51:46;;;;;;;;;;;;;;;;;;5072649;28;20047;-58
2023/11/19 05:54:13;;;;;;;;;;;;;;;;;;5065397;28;19916;-59
2023/11/19 05:56:39;;;;;;;;;;;;;;;;;;5062270;28;19913;-59
2023/11/19 05:59:14;;;;;;;;;;;;;;;;;;5070063;28;19919;-58
2023/11/19 06:01:41;;;;;;;;;;;;;;;;;;5072969;28;19916;-58
2023/11/19 06:04:07;;;;;;;;;;;;;;;;;;5070200;28;19969;-58
2023/11/19 06:06:33;;;;;;;;;;;;;;;;;;5078010;28;19912;-59
2023/11/19 06:09:00;;;;;;;;;;;;;;;;;;5068040;28;20349;-58
2023/11/19 06:11:26;;;;;;;;;;;;;;;;;;5068884;28;20368;-58
2023/11/19 06:13:52;;;;;;;;;;;;;;;;;;5067082;28;19939;-59
2023/11/19 06:16:18;;;;;;;;;;;;;;;;;;5069805;28;19913;-58
2023/11/19 06:18:44;;;;;;;;;;;;;;;;;;5071464;28;19919;-58
2023/11/19 06:21:10;;;;;;;;;;;;;;;;;;5073009;28;19912;-58
2023/11/19 06:23:36;;;;;;;;;;;;;;;;;;5072896;28;19951;-58
2023/11/19 06:26:02;;;;;;;;;;;;;;;;;;5073043;28;20003;-59
2023/11/19 06:28:28;;;;;;;;;;;;;;;;;;5067494;28;19971;-59
2023/11/19 06:30:54;;;;;;;;;;;;;;;;;;5071561;28;20376;-58
2023/11/19 06:33:20;;;;;;;;;;;;;;;;;;5069737;28;19919;-58
2023/11/19 06:35:45;;;;;;;;;;;;;;;;;;5071747;28;20400;-58
2023/11/19 06:38:11;;;;;;;;;;;;;;;;;;5070455;28;20004;-60
2023/11/19 06:40:37;;;;;;;;;;;;;;;;;;5070613;28;19913;-58
2023/11/19 06:43:03;;;;;;;;;;;;;;;;;;5072857;28;19916;-58
2023/11/19 06:45:29;;;;;;;;;;;;;;;;;;5064715;28;19932;-66
2023/11/19 06:47:55;;;;;;;;;;;;;;;;;;5072084;28;19963;-64
2023/11/19 06:50:21;;;;;;;;;;;;;;;;;;5057899;28;19954;-64
2023/11/19 06:52:47;;;;;;;;;;;;;;;;;;5070180;28;19966;-64
2023/11/19 06:55:13;;;;;;;;;;;;;;;;;;5069812;28;20436;-63
2023/11/19 06:57:39;;;;;;;;;;;;;;;;;;5066665;28;19974;-64
2023/11/19 07:00:05;;;;;;;;;;;;;;;;;;5066825;28;20001;-62
2023/11/19 07:02:31;;;;;;;;;;;;;;;;;;5068116;28;19916;-66
2023/11/19 07:04:57;;;;;;;;;;;;;;;;;;5070382;28;19962;-66
2023/11/19 07:07:23;;;;;;;;;;;;;;;;;;5071459;28;20392;-63
2023/11/19 07:09:50;;;;;;;;;;;;;;;;;;5069482;28;19920;-63
2023/11/19 07:12:15;;;;;;;;;;;;;;;;;;5056271;28;19912;-63
2023/11/19 07:14:41;;;;;;;;;;;;;;;;;;5067345;28;19952;-64
2023/11/19 07:17:08;;;;;;;;;;;;;;;;;;5065693;28;20283;-63
2023/11/19 07:19:36;;;;;;;;;;;;;;;;;;5070287;28;19982;-65
2023/11/19 07:22:02;;;;;;;;;;;;;;;;;;5073462;28;20383;-64
2023/11/19 07:24:28;;;;;;;;;;;;;;;;;;5070377;28;19912;-64
2023/11/19 07:26:54;;;;;;;;;;;;;;;;;;4999794;28;1794685;-64
2023/11/19 07:29:21;;;;;;;;;;;;;;;;;;5067237;28;19917;-63
2023/11/19 07:31:47;;;;;;;;;;;;;;;;;;5063834;28;20317;-63
2023/11/19 07:34:13;;;;;;;;;;;;;;;;;;5051331;28;19920;-63
2023/11/19 07:36:39;;;;;;;;;;;;;;;;;;5065282;28;19920;-64
2023/11/19 07:39:05;;;;;;;;;;;;;;;;;;5064299;28;19958;-63
2023/11/19 07:41:31;;;;;;;;;;;;;;;;;;5053764;28;19921;-64
2023/11/19 07:43:57;;;;;;;;;;;;;;;;;;5049543;28;20054;-64
2023/11/19 07:46:25;;;;;;;;;;;;;;;;;;5070932;28;19975;-64
2023/11/19 07:48:50;;;;;;;;;;;;;;;;;;5072727;28;19912;-64
2023/11/19 07:51:16;;;;;;;;;;;;;;;;;;5068116;28;20318;-63
2023/11/19 07:53:42;;;;;;;;;;;;;;;;;;5072687;28;19924;-62
2023/11/19 07:56:08;;;;;;;;;;;;;;;;;;5069302;28;19923;-62
2023/11/19 07:58:34;;;;;;;;;;;;;;;;;;5066554;28;19959;-63
2023/11/19 08:01:01;;;;;;;;;;;;;;;;;;5069963;28;19940;-63
2023/11/19 08:03:27;;;;;;;;;;;;;;;;;;5071841;28;19912;-63
2023/11/19 08:05:53;;;;;;;;;;;;;;;;;;5074418;28;19943;-63
2023/11/19 08:08:19;;;;;;;;;;;;;;;;;;5064027;28;19921;-62
2023/11/19 08:10:47;;;;;;;;;;;;;;;;;;5078404;28;19912;-62
2023/11/19 08:13:13;;;;;;;;;;;;;;;;;;5062059;28;19916;-62
2023/11/19 08:15:40;;;;;;;;;;;;;;;;;;5066933;28;19970;-62
2023/11/19 08:18:07;;;;;;;;;;;;;;;;;;5068072;28;19948;-62
2023/11/19 08:20:33;;;;;;;;;;;;;;;;;;5070560;28;19929;-62
2023/11/19 08:22:59;;;;;;;;;;;;;;;;;;5077353;28;20015;-62
2023/11/19 08:25:25;;;;;;;;;;;;;;;;;;5076499;28;20344;-62
2023/11/19 08:27:51;;;;;;;;;;;;;;;;;;5075184;28;20019;-62
2023/11/19 08:30:16;;;;;;;;;;;;;;;;;;5075930;28;19940;-62
2023/11/19 08:32:42;;;;;;;;;;;;;;;;;;5086995;28;19927;-62
2023/11/19 08:35:08;;;;;;;;;;;;;;;;;;5067143;28;19942;-62
2023/11/19 08:37:36;;;;;;;;;;;;;;;;;;5063500;28;19947;-62
2023/11/19 08:40:04;;;;;;;;;;;;;;;;;;5070421;28;19923;-62
2023/11/19 08:42:30;;;;;;;;;;;;;;;;;;5073047;28;19917;-62
2023/11/19 08:44:56;;;;;;;;;;;;;;;;;;5066456;28;19966;-62
2023/11/19 08:47:22;;;;;;;;;;;;;;;;;;5089374;28;19940;-61
2023/11/19 08:49:48;;;;;;;;;;;;;;;;;;5075049;28;20007;-62
2023/11/19 08:52:14;;;;;;;;;;;;;;;;;;5069608;28;20027;-62
2023/11/19 08:54:40;;;;;;;;;;;;;;;;;;5080665;28;19912;-62
2023/11/19 08:57:07;;;;;;;;;;;;;;;;;;5078618;28;19962;-62
2023/11/19 08:59:33;;;;;;;;;;;;;;;;;;5075729;28;19985;-62
2023/11/19 09:01:59;;;;;;;;;;;;;;;;;;5094116;28;19993;-62
2023/11/19 09:04:25;;;;;;;;;;;;;;;;;;5088392;28;19916;-58
2023/11/19 09:06:50;;;;;;;;;;;;;;;;;;5068198;28;20007;-58
2023/11/19 09:09:16;;;;;;;;;;;;;;;;;;5084525;28;20373;-58
2023/11/19 09:11:42;;;;;;;;;;;;;;;;;;5075187;28;20372;-61
2023/11/19 09:14:08;;;;;;;;;;;;;;;;;;5079078;28;19912;-58
2023/11/19 09:16:34;;;;;;;;;;;;;;;;;;5077878;28;19951;-59
2023/11/19 09:19:01;;;;;;;;;;;;;;;;;;5067437;28;20384;-58
2023/11/19 09:21:29;;;;;;;;;;;;;;;;;;5071795;28;19913;-58
2023/11/19 09:23:55;;;;;;;;;;;;;;;;;;5076254;28;20348;-59
2023/11/19 09:26:21;;;;;;;;;;;;;;;;;;5091763;28;19974;-58
2023/11/19 09:28:47;;;;;;;;;;;;;;;;;;5072990;28;20013;-58
2023/11/19 09:31:12;;;;;;;;;;;;;;;;;;5071479;28;19909;-58
2023/11/19 09:33:38;;;;;;;;;;;;;;;;;;5076015;28;19926;-61
2023/11/19 09:36:04;;;;;;;;;;;;;;;;;;5069378;28;19951;-58
2023/11/19 09:38:30;;;;;;;;;;;;;;;;;;5081622;28;19909;-60
2023/11/19 09:40:57;;;;;;;;;;;;;;;;;;5069695;28;19961;-60
2023/11/19 09:43:23;;;;;;;;;;;;;;;;;;5087834;28;19920;-59
2023/11/19 09:45:52;;;;;;;;;;;;;;;;;;5066061;28;19948;-58
2023/11/19 09:48:18;;;;;;;;;;;;;;;;;;5067959;28;19995;-58
2023/11/19 09:50:44;;;;;;;;;;;;;;;;;;5082073;28;19912;-59
2023/11/19 09:53:10;;;;;;;;;;;;;;;;;;5081627;28;19922;-60
2023/11/19 09:55:36;;;;;;;;;;;;;;;;;;5078342;28;20053;-59
2023/11/19 09:58:02;;;;;;;;;;;;;;;;;;5067422;28;20034;-58
2023/11/19 10:00:28;;;;;;;;;;;;;;;;;;5069898;28;20047;-60
2023/11/19 10:02:54;;;;;;;;;;;;;;;;;;5071033;28;19962;-61
2023/11/19 10:05:20;;;;;;;;;;;;;;;;;;5066888;28;20357;-58
2023/11/19 10:07:46;;;;;;;;;;;;;;;;;;5074151;28;20007;-58
2023/11/19 10:10:17;;;;;;;;;;;;;;;;;;5071259;28;19995;-58
2023/11/19 10:12:44;;;;;;;;;;;;;;;;;;5067117;28;19923;-58
2023/11/19 10:15:10;;;;;;;;;;;;;;;;;;5070988;28;19916;-58
2023/11/19 10:17:35;;;;;;;;;;;;;;;;;;5068664;28;19954;-58
2023/11/19 10:20:02;;;;;;;;;;;;;;;;;;5072366;28;19927;-58
2023/11/19 10:22:28;;;;;;;;;;;;;;;;;;5072141;28;20276;-58
2023/11/19 10:24:54;;;;;;;;;;;;;;;;;;5074171;28;19951;-59
2023/11/19 10:27:20;;;;;;;;;;;;;;;;;;5060249;28;19956;-59
2023/11/19 10:29:46;;;;;;;;;;;;;;;;;;5075103;28;19915;-58
2023/11/19 10:32:13;;;;;;;;;;;;;;;;;;5075233;28;19919;-59
2023/11/19 10:34:39;;;;;;;;;;;;;;;;;;5077651;28;20368;-59
2023/11/19 10:37:05;;;;;;;;;;;;;;;;;;5070001;28;20379;-58
2023/11/19 10:39:31;;;;;;;;;;;;;;;;;;5060463;28;19912;-58
2023/11/19 10:41:57;;;;;;;;;;;;;;;;;;5073687;28;19963;-61
2023/11/19 10:44:23;;;;;;;;;;;;;;;;;;5069250;28;20352;-60
2023/11/19 10:46:50;;;;;;;;;;;;;;;;;;5058941;28;19974;-60
2023/11/19 10:49:16;;;;;;;;;;;;;;;;;;5070686;28;19931;-60
2023/11/19 10:51:42;;;;;;;;;;;;;;;;;;5070595;28;19948;-60
2023/11/19 10:54:08;;;;;;;;;;;;;;;;;;5071349;28;20346;-59
2023/11/19 10:56:34;;;;;;;;;;;;;;;;;;5075843;28;19970;-60
2023/11/19 10:59:00;;;;;;;;;;;;;;;;;;5067167;28;19912;-60
2023/11/19 11:01:26;;;;;;;;;;;;;;;;;;5069125;28;19921;-59
2023/11/19 11:03:53;;;;;;;;;;;;;;;;;;5071596;28;19920;-59
2023/11/19 11:06:19;;;;;;;;;;;;;;;;;;5073637;28;20006;-60
2023/11/19 11:08:46;;;;;;;;;;;;;;;;;;5069525;28;19999;-60
2023/11/19 11:11:11;;;;;;;;;;;;;;;;;;5071116;28;19958;-60
2023/11/19 11:13:37;;;;;;;;;;;;;;;;;;5074580;28;19959;-60
2023/11/19 11:16:04;;;;;;;;;;;;;;;;;;5071987;28;20010;-60
2023/11/19 11:18:30;;;;;;;;;;;;;;;;;;5062915;28;19913;-60
2023/11/19 11:20:55;;;;;;;;;;;;;;;;;;5064855;28;20403;-60
2023/11/19 11:23:21;;;;;;;;;;;;;;;;;;5076474;28;20003;-62
2023/11/19 11:25:48;;;;;;;;;;;;;;;;;;5072171;28;20054;-62
2023/11/19 11:28:14;;;;;;;;;;;;;;;;;;5074236;28;19921;-62
2023/11/19 11:30:40;;;;;;;;;;;;;;;;;;5067706;28;20073;-63
2023/11/19 11:33:06;;;;;;;;;;;;;;;;;;5070141;28;19919;-63
2023/11/19 11:35:32;;;;;;;;;;;;;;;;;;5074443;28;19920;-63
2023/11/19 11:37:58;;;;;;;;;;;;;;;;;;5072700;28;19915;-63
2023/11/19 11:40:24;;;;;;;;;;;;;;;;;;5078341;28;19955;-63
2023/11/19 11:42:51;;;;;;;;;;;;;;;;;;5077633;28;19935;-62
2023/11/19 11:45:17;;;;;;;;;;;;;;;;;;5069020;28;19917;-62
2023/11/19 11:47:46;;;;;;;;;;;;;;;;;;5064226;28;20011;-62
2023/11/19 11:50:12;;;;;;;;;;;;;;;;;;5080720;28;19912;-63
2023/11/19 11:52:38;;;;;;;;;;;;;;;;;;5074443;28;20406;-62
2023/11/19 11:55:04;;;;;;;;;;;;;;;;;;5068012;28;20010;-62
2023/11/19 11:57:30;;;;;;;;;;;;;;;;;;5071965;28;19958;-62
2023/11/19 11:59:56;;;;;;;;;;;;;;;;;;5071737;28;20407;-63
2023/11/19 12:02:22;;;;;;;;;;;;;;;;;;5076845;28;19963;-63
2023/11/19 12:04:48;;;;;;;;;;;;;;;;;;5080127;28;19912;-62
2023/11/19 12:07:14;;;;;;;;;;;;;;;;;;5083422;28;19916;-62
2023/11/19 12:09:39;;;;;;;;;;;;;;;;;;5090651;28;19920;-62
2023/11/19 12:12:05;;;;;;;;;;;;;;;;;;5070509;28;19955;-62
2023/11/19 12:14:31;;;;;;;;;;;;;;;;;;5071866;28;20384;-63
2023/11/19 12:16:57;;;;;;;;;;;;;;;;;;5078198;28;19908;-62
2023/11/19 12:19:23;;;;;;;;;;;;;;;;;;5085069;28;19955;-62
2023/11/19 12:21:49;;;;;;;;;;;;;;;;;;5076844;28;19947;-62
2023/11/19 12:24:15;;;;;;;;;;;;;;;;;;5072326;28;19995;-63
2023/11/19 12:26:41;;;;;;;;;;;;;;;;;;5074440;28;19920;-63
2023/11/19 12:29:07;;;;;;;;;;;;;;;;;;5084642;28;19951;-63
2023/11/19 12:31:35;;;;;;;;;;;;;;;;;;5064182;28;20268;-62
2023/11/19 12:34:01;;;;;;;;;;;;;;;;;;5083601;28;19912;-63
2023/11/19 12:36:27;;;;;;;;;;;;;;;;;;5066352;28;20043;-63
2023/11/19 12:38:53;;;;;;;;;;;;;;;;;;5078611;28;20075;-63
2023/11/19 12:41:23;;;;;;;;;;;;;;;;;;5075480;28;20891;-63
2023/11/19 12:43:48;;;;;;;;;;;;;;;;;;5082075;28;20338;-63
2023/11/19 12:46:14;;;;;;;;;;;;;;;;;;5081432;28;19956;-63
2023/11/19 12:48:40;;;;;;;;;;;;;;;;;;5070641;28;20372;-63
2023/11/19 12:51:07;;;;;;;;;;;;;;;;;;5084311;28;19939;-63
2023/11/19 12:53:33;;;;;;;;;;;;;;;;;;5070217;28;20340;-63
2023/11/19 12:55:59;;;;;;;;;;;;;;;;;;5069920;28;19965;-63
2023/11/19 12:58:25;;;;;;;;;;;;;;;;;;5083175;28;19909;-63
2023/11/19 13:00:51;;;;;;;;;;;;;;;;;;5070939;28;19913;-63
2023/11/19 13:03:16;;;;;;;;;;;;;;;;;;5068912;28;19919;-63
2023/11/19 13:05:43;;;;;;;;;;;;;;;;;;5066719;28;19912;-64
2023/11/19 13:08:09;;;;;;;;;;;;;;;;;;5070263;28;19959;-64
2023/11/19 13:10:35;;;;;;;;;;;;;;;;;;5065899;28;20380;-63
2023/11/19 13:13:01;;;;;;;;;;;;;;;;;;5065346;28;19923;-63
2023/11/19 13:15:26;;;;;;;;;;;;;;;;;;5069178;28;19958;-63
2023/11/19 13:17:52;;;;;;;;;;;;;;;;;;5075628;28;19997;-63
2023/11/19 13:20:18;;;;;;;;;;;;;;;;;;5075702;28;19951;-63
2023/11/19 13:22:44;;;;;;;;;;;;;;;;;;5056844;28;19912;-64
2023/11/19 13:25:10;;;;;;;;;;;;;;;;;;5074846;28;19990;-64
2023/11/19 13:27:36;;;;;;;;;;;;;;;;;;5074732;28;20015;-64
2023/11/19 13:30:02;;;;;;;;;;;;;;;;;;5067758;28;19912;-64
2023/11/19 13:32:28;;;;;;;;;;;;;;;;;;5074799;28;19999;-63
2023/11/19 13:34:54;;;;;;;;;;;;;;;;;;5075195;28;19920;-63
2023/11/19 13:37:20;;;;;;;;;;;;;;;;;;5069398;28;19913;-63
2023/11/19 13:39:45;;;;;;;;;;;;;;;;;;5072989;28;20295;-63
2023/11/19 13:42:11;;;;;;;;;;;;;;;;;;5067182;28;19943;-63
2023/11/19 13:44:37;;;;;;;;;;;;;;;;;;5073288;28;19912;-64
2023/11/19 13:47:03;;;;;;;;;;;;;;;;;;5074528;28;19930;-64
2023/11/19 13:49:29;;;;;;;;;;;;;;;;;;5075137;28;19916;-64
2023/11/19 13:51:55;;;;;;;;;;;;;;;;;;5065786;28;20373;-64
2023/11/19 13:54:21;;;;;;;;;;;;;;;;;;5071047;28;19923;-63
2023/11/19 13:56:47;;;;;;;;;;;;;;;;;;5074085;28;19921;-64
2023/11/19 13:59:13;;;;;;;;;;;;;;;;;;5073779;28;20006;-65
2023/11/19 14:01:39;;;;;;;;;;;;;;;;;;5070658;28;20285;-64
2023/11/19 14:04:05;;;;;;;;;;;;;;;;;;5070678;28;20015;-65
2023/11/19 14:06:31;;;;;;;;;;;;;;;;;;5071179;28;19923;-65
2023/11/19 14:08:57;;;;;;;;;;;;;;;;;;5072354;28;19964;-64
2023/11/19 14:11:23;;;;;;;;;;;;;;;;;;5067734;28;19981;-65
2023/11/19 14:13:50;;;;;;;;;;;;;;;;;;5071870;28;20362;-63
2023/11/19 14:16:15;;;;;;;;;;;;;;;;;;5070934;28;19920;-63
2023/11/19 14:18:41;;;;;;;;;;;;;;;;;;5066749;28;19978;-64
2023/11/19 14:21:07;;;;;;;;;;;;;;;;;;5062099;28;19920;-64
2023/11/19 14:23:33;;;;;;;;;;;;;;;;;;5067313;28;19931;-64
2023/11/19 14:25:59;;;;;;;;;;;;;;;;;;5079515;28;19974;-64
2023/11/19 14:28:26;;;;;;;;;;;;;;;;;;5074620;28;19966;-64
2023/11/19 14:30:56;;;;;;;;;;;;;;;;;;5071301;28;19916;-64
2023/11/19 14:33:22;;;;;;;;;;;;;;;;;;5070160;28;20380;-64
2023/11/19 14:35:48;;;;;;;;;;;;;;;;;;5073323;28;20007;-64
2023/11/19 14:38:14;;;;;;;;;;;;;;;;;;5070188;28;19916;-64
2023/11/19 14:40:42;;;;;;;;;;;;;;;;;;5077861;28;19959;-64
2023/11/19 14:43:10;;;;;;;;;;;;;;;;;;5074884;28;19912;-64
2023/11/19 14:45:36;;;;;;;;;;;;;;;;;;5070535;28;20272;-63
2023/11/19 14:48:02;;;;;;;;;;;;;;;;;;5074712;28;19979;-65
2023/11/19 14:50:27;;;;;;;;;;;;;;;;;;5073246;28;19915;-64
2023/11/19 14:52:53;;;;;;;;;;;;;;;;;;5076613;28;20364;-64
2023/11/19 14:55:19;;;;;;;;;;;;;;;;;;5068549;28;20329;-63
2023/11/19 14:57:45;;;;;;;;;;;;;;;;;;5080039;28;20364;-63
2023/11/19 15:00:14;;;;;;;;;;;;;;;;;;5051052;28;19923;-63
2023/11/19 15:02:40;;;;;;;;;;;;;;;;;;5079308;28;20372;-63
2023/11/19 15:05:09;;;;;;;;;;;;;;;;;;5076039;28;19943;-64
2023/11/19 15:07:35;;;;;;;;;;;;;;;;;;5072780;28;20284;-63
2023/11/19 15:10:01;;;;;;;;;;;;;;;;;;5074921;28;19917;-64
2023/11/19 15:12:27;;;;;;;;;;;;;;;;;;5082576;28;19967;-64
2023/11/19 15:14:53;;;;;;;;;;;;;;;;;;5075707;28;20050;-64
2023/11/19 15:17:19;;;;;;;;;;;;;;;;;;5076680;28;20002;-63
2023/11/19 15:19:45;;;;;;;;;;;;;;;;;;5083533;28;19998;-63
2023/11/19 15:22:12;;;;;;;;;;;;;;;;;;5067687;28;19919;-63
2023/11/19 15:24:39;;;;;;;;;;;;;;;;;;5079120;28;19920;-63
2023/11/19 15:27:05;;;;;;;;;;;;;;;;;;5079585;28;19949;-64
2023/11/19 15:29:34;;;;;;;;;;;;;;;;;;5063021;28;19920;-63
2023/11/19 15:32:00;;;;;;;;;;;;;;;;;;5068715;28;19919;-63
2023/11/19 15:34:25;;;;;;;;;;;;;;;;;;5080846;28;20305;-63
2023/11/19 15:36:51;;;;;;;;;;;;;;;;;;5072888;28;19947;-63
2023/11/19 15:39:17;;;;;;;;;;;;;;;;;;5086597;28;20032;-63
2023/11/19 15:41:43;;;;;;;;;;;;;;;;;;5074621;28;19920;-63
2023/11/19 15:44:09;;;;;;;;;;;;;;;;;;5075661;28;19962;-63
2023/11/19 15:46:35;;;;;;;;;;;;;;;;;;5066975;28;19987;-63
2023/11/19 15:49:01;;;;;;;;;;;;;;;;;;5079495;28;20010;-63
2023/11/19 15:51:28;;;;;;;;;;;;;;;;;;5083792;28;19995;-61
2023/11/19 15:53:54;;;;;;;;;;;;;;;;;;5083939;28;20399;-64
2023/11/19 15:56:20;;;;;;;;;;;;;;;;;;5077884;28;19935;-63
2023/11/19 15:58:46;;;;;;;;;;;;;;;;;;5080688;28;20339;-64
2023/11/19 16:01:12;;;;;;;;;;;;;;;;;;5071323;28;20376;-64
2023/11/19 16:03:39;;;;;;;;;;;;;;;;;;5072447;28;19971;-63
2023/11/19 16:06:05;;;;;;;;;;;;;;;;;;5078501;28;19955;-63
2023/11/19 16:08:31;;;;;;;;;;;;;;;;;;5067534;28;20017;-64
2023/11/19 16:10:58;;;;;;;;;;;;;;;;;;5074487;28;19913;-63
2023/11/19 16:13:23;;;;;;;;;;;;;;;;;;5068849;28;19920;-63
2023/11/19 16:15:49;;;;;;;;;;;;;;;;;;5066827;28;20347;-63
2023/11/19 16:18:17;;;;;;;;;;;;;;;;;;5078739;28;19999;-63
2023/11/19 16:20:42;;;;;;;;;;;;;;;;;;5073154;28;19944;-64
2023/11/19 16:23:08;;;;;;;;;;;;;;;;;;5070413;28;20423;-64
2023/11/19 16:25:37;;;;;;;;;;;;;;;;;;5071486;28;19913;-63
2023/11/19 16:28:02;;;;;;;;;;;;;;;;;;5065077;28;19916;-64
2023/11/19 16:30:29;;;;;;;;;;;;;;;;;;5073352;28;19919;-64
2023/11/19 16:32:55;;;;;;;;;;;;;;;;;;5073308;28;19912;-64
2023/11/19 16:35:21;;;;;;;;;;;;;;;;;;5073504;28;20020;-64
2023/11/19 16:37:47;;;;;;;;;;;;;;;;;;5070446;28;19959;-64